Aviation Digital Data Service (ADDS)

Output produced by METARs form (1533 UTC 23 January 2019)
found at http://www.aviationweather.gov/metar/data/
 
Forecast for: KEDW (EDWARDS AFB , CA, US)
Text: TAF KEDW 231003Z 2310/2416 VRB06KT 9999 SKC QNH3023INS TX13/2323Z TNM03/2314Z
Forecast period: 1000 UTC 23 January 2019 to 1600 UTC 24 January 2019
Forecast type: FROM: standard forecast or significant change
Winds: variable direction winds at 7 MPH (6 knots; 3.1 m/s)
Visibility: 6 or more miles 10+ km)
Clouds: clear skies
Weather: no significant weather forecast for this period